createdAt,value
2023-05-17T00:02:09.416Z,7.80
2023-05-17T00:04:36.271Z,10.80
2023-05-17T00:07:03.327Z,7.70
2023-05-17T00:09:30.131Z,7.70
2023-05-17T00:11:56.916Z,9.30
2023-05-17T00:14:23.830Z,8.70
2023-05-17T00:16:52.647Z,7.10
2023-05-17T00:19:19.790Z,5.90
2023-05-17T00:21:47.028Z,8.70
2023-05-17T00:24:13.827Z,7.40
2023-05-17T00:26:40.580Z,6.80
2023-05-17T00:29:08.400Z,8.40
2023-05-17T00:31:35.730Z,9.20
2023-05-17T00:34:02.581Z,6.10
2023-05-17T00:36:29.568Z,9.10
2023-05-17T00:38:56.432Z,9.10
2023-05-17T00:41:23.245Z,8.10
2023-05-17T00:43:50.134Z,7.90
2023-05-17T00:46:16.929Z,6.00
2023-05-17T00:48:44.067Z,6.30
2023-05-17T00:51:11.859Z,8.90
2023-05-17T00:53:38.905Z,7.80
2023-05-17T00:56:06.251Z,7.20
2023-05-17T00:58:33.968Z,8.00
2023-05-17T01:01:01.489Z,8.80
2023-05-17T01:03:28.552Z,9.70
2023-05-17T01:05:55.462Z,7.70
2023-05-17T01:08:22.407Z,6.90
2023-05-17T01:11:20.180Z,8.30
2023-05-17T01:14:01.692Z,8.10
2023-05-17T01:16:33.518Z,6.20
2023-05-17T01:19:16.943Z,11.00
2023-05-17T01:22:10.228Z,8.50
2023-05-17T01:24:46.036Z,6.80
2023-05-17T01:27:13.008Z,6.20
2023-05-17T01:29:39.840Z,8.60
2023-05-17T01:32:07.339Z,10.70
2023-05-17T01:34:34.968Z,8.90
2023-05-17T01:37:02.971Z,7.70
2023-05-17T01:39:30.279Z,8.40
2023-05-17T01:42:05.772Z,7.20
2023-05-17T01:44:43.956Z,5.70
2023-05-17T01:47:16.655Z,7.20
2023-05-17T01:49:46.430Z,7.00
2023-05-17T01:52:19.407Z,9.80
2023-05-17T01:54:48.646Z,7.40
2023-05-17T01:57:16.379Z,5.90
2023-05-17T01:59:43.342Z,10.10
2023-05-17T02:02:10.150Z,7.80
2023-05-17T02:04:37.044Z,6.50
2023-05-17T02:07:04.124Z,7.00
2023-05-17T02:09:31.455Z,8.50
2023-05-17T02:11:58.382Z,6.80
2023-05-17T02:14:25.281Z,9.00
2023-05-17T02:16:52.269Z,6.60
2023-05-17T02:19:19.140Z,6.50
2023-05-17T02:21:46.142Z,7.70
2023-05-17T02:24:13.073Z,7.80
2023-05-17T02:26:43.356Z,8.50
2023-05-17T02:29:13.244Z,6.60
2023-05-17T02:31:40.209Z,12.20
2023-05-17T02:34:07.089Z,9.10
2023-05-17T02:36:33.914Z,6.70
2023-05-17T02:39:01.455Z,12.30
2023-05-17T02:41:28.326Z,8.70
2023-05-17T02:43:55.245Z,6.40
2023-05-17T02:46:22.414Z,6.10
2023-05-17T02:48:49.318Z,7.60
2023-05-17T02:51:16.237Z,7.00
2023-05-17T02:53:43.180Z,6.50
2023-05-17T02:56:10.114Z,6.10
2023-05-17T02:58:37.195Z,6.10
2023-05-17T03:01:04.518Z,4.30
2023-05-17T03:03:31.914Z,7.30
2023-05-17T03:06:02.771Z,11.80
2023-05-17T03:08:29.688Z,7.40
2023-05-17T03:10:57.129Z,8.40
2023-05-17T03:13:23.940Z,8.40
2023-05-17T03:15:50.951Z,8.30
2023-05-17T03:18:18.250Z,5.70
2023-05-17T03:20:45.349Z,6.10
2023-05-17T03:23:12.382Z,9.80
2023-05-17T03:25:48.805Z,6.20
2023-05-17T03:28:16.053Z,8.20
2023-05-17T03:30:43.971Z,6.10
2023-05-17T03:33:10.909Z,5.50
2023-05-17T03:35:37.763Z,9.80
2023-05-17T03:38:04.562Z,8.60
2023-05-17T03:40:31.409Z,9.40
2023-05-17T03:42:59.307Z,10.80
2023-05-17T03:45:27.769Z,11.80
2023-05-17T03:47:55.016Z,12.00
2023-05-17T03:50:22.741Z,9.40
2023-05-17T03:52:50.262Z,7.30
2023-05-17T03:55:17.137Z,7.90
2023-05-17T03:57:44.305Z,6.20
2023-05-17T04:00:12.531Z,8.70
2023-05-17T04:02:42.196Z,8.40
2023-05-17T04:05:09.532Z,5.90
2023-05-17T04:07:36.986Z,9.30
2023-05-17T04:10:03.976Z,9.30
2023-05-17T04:12:30.826Z,7.10
2023-05-17T04:14:57.705Z,6.80
2023-05-17T04:17:25.193Z,8.50
2023-05-17T04:19:52.209Z,7.50
2023-05-17T04:22:22.710Z,7.60
2023-05-17T04:24:49.602Z,6.80
2023-05-17T04:27:16.865Z,11.30
2023-05-17T04:29:44.617Z,6.80
2023-05-17T04:32:11.418Z,7.30
2023-05-17T04:34:38.451Z,9.00
2023-05-17T04:37:06.109Z,6.00
2023-05-17T04:39:33.672Z,8.00
2023-05-17T04:42:00.550Z,6.30
2023-05-17T04:44:27.594Z,6.10
2023-05-17T04:46:54.813Z,10.90
2023-05-17T04:49:21.839Z,8.70
2023-05-17T04:51:48.744Z,6.10
2023-05-17T04:54:15.986Z,9.30
2023-05-17T04:56:42.902Z,5.90
2023-05-17T04:59:13.736Z,8.80
2023-05-17T05:01:40.719Z,9.80
2023-05-17T05:04:08.080Z,7.40
2023-05-17T05:06:39.723Z,8.90
2023-05-17T05:09:10.122Z,7.80
2023-05-17T05:11:38.015Z,10.10
2023-05-17T05:14:05.273Z,10.70
2023-05-17T05:16:32.252Z,8.70
2023-05-17T05:18:59.594Z,8.50
2023-05-17T05:21:27.504Z,6.40
2023-05-17T05:23:55.218Z,9.00
2023-05-17T05:26:22.125Z,7.90
2023-05-17T05:28:49.329Z,7.70
2023-05-17T05:31:16.347Z,10.60
2023-05-17T05:33:47.669Z,14.50
2023-05-17T05:36:14.690Z,15.00
2023-05-17T05:38:41.454Z,12.10
2023-05-17T05:41:08.451Z,12.10
2023-05-17T05:43:37.624Z,12.80
2023-05-17T05:46:04.798Z,9.90
2023-05-17T05:48:31.877Z,13.10
2023-05-17T05:50:58.725Z,11.00
2023-05-17T05:53:25.731Z,10.00
2023-05-17T05:55:54.673Z,7.60
2023-05-17T05:58:21.525Z,14.20
2023-05-17T06:00:48.709Z,11.80
2023-05-17T06:03:15.663Z,5.80
2023-05-17T06:05:42.792Z,9.20
2023-05-17T06:08:09.824Z,5.70
2023-05-17T06:10:36.747Z,7.70
2023-05-17T06:13:03.560Z,5.60
2023-05-17T06:15:31.133Z,10.20
2023-05-17T06:17:58.128Z,11.70
2023-05-17T06:20:25.009Z,8.50
2023-05-17T06:22:51.861Z,9.80
2023-05-17T06:25:18.832Z,9.10
2023-05-17T06:27:45.712Z,5.90
2023-05-17T06:30:13.076Z,6.80
2023-05-17T06:32:40.071Z,9.50
2023-05-17T06:35:08.505Z,7.90
2023-05-17T06:37:35.632Z,6.00
2023-05-17T06:40:14.794Z,8.80
2023-05-17T06:42:42.275Z,5.90
2023-05-17T06:45:09.683Z,8.10
2023-05-17T06:47:36.578Z,7.80
2023-05-17T06:50:04.313Z,7.00
2023-05-17T06:52:31.254Z,9.10
2023-05-17T06:54:58.061Z,5.60
2023-05-17T06:57:24.929Z,11.50
2023-05-17T06:59:52.423Z,8.50
2023-05-17T07:02:19.730Z,7.60
2023-05-17T07:04:46.598Z,6.70
2023-05-17T07:07:13.493Z,6.00
2023-05-17T07:09:41.080Z,8.30
2023-05-17T07:12:07.945Z,9.60
2023-05-17T07:14:34.822Z,6.20
2023-05-17T07:17:01.810Z,6.60
2023-05-17T07:19:28.820Z,7.90
2023-05-17T07:21:55.825Z,6.60
2023-05-17T07:24:22.945Z,7.40
2023-05-17T07:26:52.666Z,11.40
2023-05-17T07:29:20.085Z,7.20
2023-05-17T07:31:46.923Z,7.30
2023-05-17T07:34:14.082Z,7.60
2023-05-17T07:36:41.846Z,7.30
2023-05-17T07:39:09.321Z,4.90
2023-05-17T07:41:36.651Z,4.40
2023-05-17T07:44:03.524Z,4.80
2023-05-17T07:46:30.426Z,6.50
2023-05-17T07:48:58.723Z,4.70
2023-05-17T07:51:26.467Z,7.30
2023-05-17T07:53:53.442Z,5.60
2023-05-17T07:56:20.333Z,11.00
2023-05-17T07:58:47.097Z,9.20
2023-05-17T08:01:14.919Z,6.00
2023-05-17T08:03:48.172Z,4.70
2023-05-17T08:06:18.341Z,4.50
2023-05-17T08:08:45.328Z,5.70
2023-05-17T08:11:12.664Z,4.20
2023-05-17T08:13:39.749Z,4.50
2023-05-17T08:16:13.524Z,4.90
2023-05-17T08:18:42.480Z,5.30
2023-05-17T08:21:10.031Z,4.30
2023-05-17T08:23:36.901Z,5.40
2023-05-17T08:26:03.717Z,9.00
2023-05-17T08:28:30.512Z,4.30
2023-05-17T08:30:58.005Z,9.50
2023-05-17T08:33:26.323Z,3.70
2023-05-17T08:38:22.586Z,3.90
2023-05-17T08:40:54.638Z,4.90
2023-05-17T08:43:22.751Z,9.20
2023-05-17T08:45:50.202Z,5.90
2023-05-17T08:48:20.525Z,3.90
2023-05-17T08:50:47.528Z,4.20
2023-05-17T08:53:14.574Z,6.00
2023-05-17T08:55:43.702Z,3.90
2023-05-17T08:58:10.713Z,9.60
2023-05-17T09:00:37.587Z,5.00
2023-05-17T09:03:04.684Z,5.30
2023-05-17T09:05:31.770Z,3.40
2023-05-17T09:07:59.135Z,2.80
2023-05-17T09:10:26.740Z,5.30
2023-05-17T09:12:53.726Z,5.30
2023-05-17T09:15:23.075Z,3.70
2023-05-17T09:17:53.875Z,3.00
2023-05-17T09:20:35.009Z,4.50
2023-05-17T09:23:02.621Z,3.40
2023-05-17T09:25:30.352Z,2.90
2023-05-17T09:28:02.595Z,5.10
2023-05-17T09:30:33.297Z,3.20
2023-05-17T09:33:07.641Z,2.60
2023-05-17T09:35:35.316Z,3.70
2023-05-17T09:38:09.311Z,3.20
2023-05-17T09:40:40.442Z,12.40
2023-05-17T09:43:07.443Z,4.00
2023-05-17T09:45:34.982Z,4.70
2023-05-17T09:48:13.895Z,3.90
2023-05-17T09:50:48.524Z,24.10
2023-05-17T09:53:25.609Z,8.30
2023-05-17T09:55:54.288Z,27.40
2023-05-17T09:58:22.318Z,5.30
2023-05-17T10:00:53.195Z,7.50
2023-05-17T10:03:20.664Z,10.30
2023-05-17T10:05:47.622Z,2.70
2023-05-17T10:08:15.123Z,4.20
2023-05-17T10:10:42.300Z,8.40
2023-05-17T10:13:10.706Z,3.70
2023-05-17T10:18:06.664Z,5.70
2023-05-17T10:20:33.710Z,7.70
2023-05-17T10:23:00.854Z,5.00
2023-05-17T10:25:27.796Z,3.80
2023-05-17T10:27:55.044Z,4.70
2023-05-17T10:30:22.530Z,4.00
2023-05-17T10:32:49.584Z,2.50
2023-05-17T10:35:16.784Z,5.00
2023-05-17T10:37:43.664Z,12.40
2023-05-17T10:40:13.462Z,2.60
2023-05-17T10:42:52.576Z,3.20
2023-05-17T10:45:27.305Z,2.20
2023-05-17T10:47:54.921Z,2.00
2023-05-17T10:50:26.370Z,1.40
2023-05-17T10:52:55.820Z,3.80
2023-05-17T10:55:25.118Z,3.60
2023-05-17T10:58:16.158Z,2.30
2023-05-17T11:00:49.739Z,2.00
2023-05-17T11:03:20.504Z,2.60
2023-05-17T11:06:21.984Z,2.70
2023-05-17T11:09:08.251Z,3.50
2023-05-17T11:11:35.055Z,1.20
2023-05-17T11:14:03.932Z,0.90
2023-05-17T11:16:37.890Z,3.30
2023-05-17T11:19:09.698Z,3.10
2023-05-17T11:21:36.730Z,2.50
2023-05-17T11:24:04.433Z,2.70
2023-05-17T11:26:37.217Z,1.70
2023-05-17T11:29:08.505Z,3.80
2023-05-17T11:31:36.531Z,2.60
2023-05-17T11:34:04.117Z,1.90
2023-05-17T11:36:31.431Z,2.40
2023-05-17T11:39:12.086Z,2.50
2023-05-17T11:41:41.677Z,3.40
2023-05-17T11:44:10.248Z,3.40
2023-05-17T11:46:37.763Z,2.30
2023-05-17T11:49:07.638Z,2.30
2023-05-17T11:51:34.573Z,1.50
2023-05-17T11:54:04.421Z,4.10
2023-05-17T11:56:43.727Z,4.10
2023-05-17T11:59:10.941Z,2.70
2023-05-17T12:01:46.263Z,3.40
2023-05-17T12:04:13.568Z,3.40
2023-05-17T12:06:40.693Z,3.20
2023-05-17T12:09:11.037Z,6.10
2023-05-17T12:11:39.657Z,143.90
2023-05-17T12:14:06.701Z,64.30
2023-05-17T12:16:33.974Z,28.50
2023-05-17T12:19:00.955Z,5.50
2023-05-17T12:21:27.894Z,5.30
2023-05-17T12:23:54.677Z,4.50
2023-05-17T12:26:23.058Z,6.90
2023-05-17T12:28:59.985Z,3.60
2023-05-17T12:31:33.603Z,109.00
2023-05-17T12:34:02.425Z,5.30
2023-05-17T12:36:29.967Z,135.40
2023-05-17T12:38:56.892Z,6.30
2023-05-17T12:41:26.303Z,4.70
2023-05-17T12:43:59.900Z,5.40
2023-05-17T12:46:40.285Z,6.20
2023-05-17T12:49:08.755Z,42.00
2023-05-17T12:51:45.588Z,8.50
2023-05-17T12:54:16.374Z,4.40
2023-05-17T12:56:46.598Z,6.30
2023-05-17T12:59:18.114Z,5.50
2023-05-17T13:01:49.498Z,5.10
2023-05-17T13:04:17.197Z,4.50
2023-05-17T13:06:45.516Z,4.70
2023-05-17T13:11:41.497Z,5.10
2023-05-17T13:14:09.195Z,6.00
2023-05-17T13:16:39.757Z,4.90
2023-05-17T13:19:13.993Z,6.10
2023-05-17T13:21:41.317Z,7.20
2023-05-17T13:24:10.799Z,5.70
2023-05-17T13:26:37.715Z,3.60
2023-05-17T13:29:04.552Z,6.50
2023-05-17T13:31:31.438Z,4.50
2023-05-17T13:33:58.463Z,5.10
2023-05-17T13:36:25.700Z,2.90
2023-05-17T13:38:52.545Z,4.70
2023-05-17T13:41:19.328Z,5.10
2023-05-17T13:43:46.199Z,8.20
2023-05-17T13:46:13.017Z,9.20
2023-05-17T13:48:41.986Z,5.20
2023-05-17T13:51:10.069Z,8.80
2023-05-17T13:53:39.448Z,9.90
2023-05-17T13:56:06.669Z,7.80
2023-05-17T13:58:33.494Z,12.80
2023-05-17T14:01:00.393Z,6.00
2023-05-17T14:03:27.215Z,8.90
2023-05-17T14:05:54.447Z,11.90
2023-05-17T14:08:21.420Z,15.10
2023-05-17T14:10:48.558Z,20.00
2023-05-17T14:13:15.385Z,7.60
2023-05-17T14:15:42.358Z,128.40
2023-05-17T14:18:09.875Z,14.80
2023-05-17T14:20:36.978Z,5.50
2023-05-17T14:23:04.085Z,5.40
2023-05-17T14:25:30.937Z,5.20
2023-05-17T14:27:57.783Z,5.40
2023-05-17T14:30:24.809Z,8.30
2023-05-17T14:32:51.782Z,8.50
2023-05-17T14:35:18.726Z,4.80
2023-05-17T14:37:45.981Z,5.80
2023-05-17T14:40:12.909Z,4.70
2023-05-17T14:42:40.097Z,9.00
2023-05-17T14:45:08.188Z,5.80
2023-05-17T14:47:36.992Z,7.00
2023-05-17T14:50:04.494Z,9.50
2023-05-17T14:52:31.354Z,8.70
2023-05-17T14:54:58.531Z,4.40
2023-05-17T14:57:25.541Z,7.20
2023-05-17T14:59:52.657Z,8.40
2023-05-17T15:02:19.719Z,6.50
2023-05-17T15:04:46.701Z,8.50
2023-05-17T15:07:14.083Z,5.00
2023-05-17T15:09:41.835Z,8.20
2023-05-17T15:12:14.119Z,5.00
2023-05-17T15:14:41.299Z,7.30
2023-05-17T15:17:08.261Z,6.90
2023-05-17T15:19:35.256Z,5.60
2023-05-17T15:22:02.366Z,7.70
2023-05-17T15:24:29.800Z,7.10
2023-05-17T15:26:57.004Z,4.30
2023-05-17T15:29:23.818Z,5.20
2023-05-17T15:31:50.660Z,8.30
2023-05-17T15:34:17.630Z,5.00
2023-05-17T15:36:44.614Z,5.00
2023-05-17T15:39:11.515Z,6.50
2023-05-17T15:41:39.024Z,6.00
2023-05-17T15:44:06.272Z,8.30
2023-05-17T15:46:33.072Z,4.10
2023-05-17T15:49:00.060Z,8.80
2023-05-17T15:51:27.019Z,4.10
2023-05-17T15:53:53.938Z,6.40
2023-05-17T15:56:21.087Z,9.70
2023-05-17T15:58:47.984Z,7.90
2023-05-17T16:01:14.886Z,5.50
2023-05-17T16:03:41.857Z,12.80
2023-05-17T16:06:08.977Z,8.50
2023-05-17T16:08:35.936Z,7.20
2023-05-17T16:11:03.068Z,7.70
2023-05-17T16:13:30.386Z,7.20
2023-05-17T16:15:58.652Z,8.40
2023-05-17T16:21:01.948Z,5.50
2023-05-17T16:23:28.762Z,5.50
2023-05-17T16:25:56.239Z,5.10
2023-05-17T16:28:23.505Z,5.50
2023-05-17T16:30:51.065Z,4.50
2023-05-17T16:33:20.427Z,7.20
2023-05-17T16:35:50.698Z,5.50
2023-05-17T16:38:17.656Z,8.50
2023-05-17T16:40:44.569Z,7.40
2023-05-17T16:43:15.981Z,5.60
2023-05-17T16:45:44.319Z,6.80
2023-05-17T16:50:42.132Z,3.60
2023-05-17T16:53:09.159Z,8.40
2023-05-17T16:55:36.370Z,7.40
2023-05-17T16:58:03.580Z,5.80
2023-05-17T17:00:31.415Z,6.90
2023-05-17T17:02:59.246Z,5.70
2023-05-17T17:05:27.351Z,996.60
2023-05-17T17:07:54.619Z,621.60
2023-05-17T17:10:21.560Z,600.70
2023-05-17T17:12:49.030Z,87.80
2023-05-17T17:15:15.859Z,314.60
2023-05-17T17:17:43.515Z,627.20
2023-05-17T17:20:11.388Z,985.40
2023-05-17T17:22:38.348Z,418.50
2023-05-17T17:25:06.305Z,18.90
2023-05-17T17:27:33.172Z,4.70
2023-05-17T17:30:00.187Z,54.90
2023-05-17T17:32:27.290Z,49.50
2023-05-17T17:34:54.251Z,7.70
2023-05-17T17:37:21.494Z,18.20
2023-05-17T17:39:48.421Z,9.30
2023-05-17T17:42:15.250Z,7.50
2023-05-17T17:44:42.112Z,97.80
2023-05-17T17:47:09.033Z,9.90
2023-05-17T17:49:36.188Z,6.00
2023-05-17T17:52:03.059Z,11.30
2023-05-17T17:54:29.891Z,7.90
2023-05-17T17:56:56.782Z,95.50
2023-05-17T17:59:23.686Z,150.90
2023-05-17T18:01:50.583Z,13.80
2023-05-17T18:04:17.473Z,15.70
2023-05-17T18:06:46.013Z,13.90
2023-05-17T18:09:12.871Z,13.90
2023-05-17T18:11:39.940Z,10.50
2023-05-17T18:14:07.827Z,9.60
2023-05-17T18:16:34.745Z,9.10
2023-05-17T18:19:01.668Z,9.00
2023-05-17T18:21:29.583Z,8.90
2023-05-17T18:23:56.538Z,7.20
2023-05-17T18:26:23.463Z,9.10
2023-05-17T18:28:51.130Z,9.70
2023-05-17T18:31:18.868Z,12.40
2023-05-17T18:33:45.870Z,8.20
2023-05-17T18:36:12.641Z,7.20
2023-05-17T18:38:39.512Z,7.70
2023-05-17T18:41:06.920Z,9.40
2023-05-17T18:43:33.797Z,8.70
2023-05-17T18:46:00.645Z,10.80
2023-05-17T18:48:27.997Z,7.60
2023-05-17T18:50:55.222Z,9.60
2023-05-17T18:53:22.084Z,6.30
2023-05-17T18:55:48.881Z,7.60
2023-05-17T18:58:15.984Z,11.20
2023-05-17T19:00:42.889Z,7.80
2023-05-17T19:03:09.845Z,8.70
2023-05-17T19:05:36.801Z,6.40
2023-05-17T19:08:03.660Z,10.50
2023-05-17T19:10:30.799Z,7.00
2023-05-17T19:12:57.853Z,7.20
2023-05-17T19:15:24.828Z,7.00
2023-05-17T19:17:51.877Z,9.00
2023-05-17T19:20:19.010Z,7.50
2023-05-17T19:22:45.953Z,9.70
2023-05-17T19:25:14.264Z,8.30
2023-05-17T19:27:43.322Z,7.60
2023-05-17T19:30:10.314Z,7.20
2023-05-17T19:32:37.126Z,8.90
2023-05-17T19:35:04.322Z,5.80
2023-05-17T19:37:31.197Z,7.50
2023-05-17T19:39:59.166Z,6.60
2023-05-17T19:42:25.954Z,6.10
2023-05-17T19:44:52.858Z,9.40
2023-05-17T19:47:19.636Z,6.40
2023-05-17T19:49:46.487Z,10.40
2023-05-17T19:52:13.449Z,9.80
2023-05-17T19:54:40.378Z,8.60
2023-05-17T19:57:07.995Z,9.50
2023-05-17T19:59:35.230Z,7.40
2023-05-17T20:02:02.078Z,9.50
2023-05-17T20:04:28.959Z,10.40
2023-05-17T20:06:55.906Z,9.70
2023-05-17T20:09:26.905Z,10.60
2023-05-17T20:11:54.014Z,11.20
2023-05-17T20:14:21.488Z,8.40
2023-05-17T20:16:48.346Z,9.80
2023-05-17T20:19:15.206Z,8.60
2023-05-17T20:21:42.300Z,10.20
2023-05-17T20:24:09.198Z,9.90
2023-05-17T20:26:37.349Z,8.30
2023-05-17T20:29:07.388Z,7.50
2023-05-17T20:31:35.056Z,8.50
2023-05-17T20:34:01.972Z,7.80
2023-05-17T20:36:28.739Z,9.10
2023-05-17T20:38:55.650Z,12.50
2023-05-17T20:41:22.511Z,10.40
2023-05-17T20:43:52.747Z,10.50
2023-05-17T20:46:19.645Z,7.60
2023-05-17T20:48:48.182Z,10.40
2023-05-17T20:53:42.539Z,10.40
2023-05-17T20:56:09.442Z,8.30
2023-05-17T20:58:36.732Z,7.80
2023-05-17T21:01:03.660Z,10.00
2023-05-17T21:03:34.199Z,8.40
2023-05-17T21:06:01.692Z,7.80
2023-05-17T21:08:28.532Z,6.90
2023-05-17T21:10:55.870Z,11.10
2023-05-17T21:13:24.035Z,7.60
2023-05-17T21:15:51.851Z,7.90
2023-05-17T21:18:18.722Z,10.30
2023-05-17T21:20:46.187Z,12.40
2023-05-17T21:23:13.176Z,8.40
2023-05-17T21:25:40.095Z,8.10
2023-05-17T21:28:08.002Z,8.10
2023-05-17T21:30:34.826Z,7.50
2023-05-17T21:33:01.939Z,12.20
2023-05-17T21:35:28.998Z,9.30
2023-05-17T21:37:55.831Z,8.40
2023-05-17T21:40:22.571Z,7.40
2023-05-17T21:42:49.460Z,8.80
2023-05-17T21:45:16.718Z,8.70
2023-05-17T21:47:43.683Z,7.20
2023-05-17T21:50:10.932Z,11.90
2023-05-17T21:52:37.768Z,7.40
2023-05-17T21:55:05.307Z,8.80
2023-05-17T21:57:36.318Z,13.20
2023-05-17T22:00:05.041Z,6.40
2023-05-17T22:02:34.943Z,6.20
2023-05-17T22:05:01.997Z,6.50
2023-05-17T22:07:28.783Z,7.40
2023-05-17T22:09:55.775Z,9.10
2023-05-17T22:12:25.823Z,8.20
2023-05-17T22:14:54.317Z,5.90
2023-05-17T22:17:29.634Z,6.60
2023-05-17T22:20:06.144Z,6.90
2023-05-17T22:22:33.048Z,8.50
2023-05-17T22:24:59.895Z,6.10
2023-05-17T22:27:26.733Z,7.90
2023-05-17T22:29:53.646Z,4.90
2023-05-17T22:32:20.787Z,7.50
2023-05-17T22:34:47.674Z,7.90
2023-05-17T22:37:14.622Z,5.40
2023-05-17T22:39:42.675Z,9.90
2023-05-17T22:42:09.635Z,6.00
2023-05-17T22:44:36.933Z,10.10
2023-05-17T22:47:04.161Z,8.20
2023-05-17T22:49:34.310Z,8.40
2023-05-17T22:52:06.784Z,8.50
2023-05-17T22:54:37.268Z,6.30
2023-05-17T22:57:04.535Z,9.80
2023-05-17T22:59:32.232Z,8.30
2023-05-17T23:01:59.188Z,5.50
2023-05-17T23:04:26.338Z,7.40
2023-05-17T23:06:54.169Z,7.20
2023-05-17T23:09:22.036Z,6.90
2023-05-17T23:11:50.089Z,6.50
2023-05-17T23:14:17.585Z,6.40
2023-05-17T23:16:44.582Z,5.70
2023-05-17T23:19:13.518Z,9.20
2023-05-17T23:21:40.362Z,11.10
2023-05-17T23:24:08.242Z,8.50
2023-05-17T23:26:35.229Z,6.90
2023-05-17T23:29:03.691Z,7.50
2023-05-17T23:33:57.362Z,7.50
2023-05-17T23:36:24.187Z,7.60
2023-05-17T23:38:50.974Z,7.50
2023-05-17T23:41:19.681Z,8.40
2023-05-17T23:43:46.959Z,13.00
2023-05-17T23:46:13.959Z,8.60
2023-05-17T23:48:40.840Z,6.20
2023-05-17T23:51:08.112Z,7.10
2023-05-17T23:53:35.113Z,7.20
2023-05-17T23:56:02.049Z,5.50
2023-05-17T23:58:28.895Z,7.00
